createdAt,value
2023-03-16T00:00:04.000Z,1.7777777777777795
2023-03-16T00:00:39.000Z,1.7777777777777795
2023-03-16T00:01:09.000Z,1.7777777777777795
2023-03-16T00:01:34.000Z,1.7777777777777795
2023-03-16T00:01:59.000Z,1.7777777777777795
2023-03-16T00:02:29.000Z,1.7777777777777795
2023-03-16T00:03:04.000Z,1.7777777777777795
2023-03-16T00:03:34.000Z,1.7777777777777795
2023-03-16T00:04:14.000Z,1.7777777777777795
2023-03-16T00:04:39.000Z,1.7777777777777795
2023-03-16T00:05:09.000Z,1.7777777777777795
2023-03-16T00:05:34.000Z,1.7777777777777795
2023-03-16T00:05:59.000Z,1.7777777777777795
2023-03-16T00:06:29.000Z,1.7777777777777795
2023-03-16T00:07:04.000Z,1.7777777777777795
2023-03-16T00:07:34.000Z,1.8888888888888882
2023-03-16T00:08:04.000Z,1.8888888888888882
2023-03-16T00:08:39.000Z,2.000000000000001
2023-03-16T00:09:09.000Z,2.000000000000001
2023-03-16T00:09:34.000Z,2.000000000000001
2023-03-16T00:09:59.000Z,2.000000000000001
2023-03-16T00:10:27.000Z,1.8888888888888882
2023-03-16T00:11:04.000Z,1.8888888888888882
2023-03-16T00:11:34.000Z,1.8888888888888882
2023-03-16T00:12:04.000Z,1.8888888888888882
2023-03-16T00:12:40.000Z,2.000000000000001
2023-03-16T00:13:09.000Z,2.000000000000001
2023-03-16T00:13:34.000Z,2.000000000000001
2023-03-16T00:13:59.000Z,2.000000000000001
2023-03-16T00:14:29.000Z,2.1111111111111094
2023-03-16T00:15:04.000Z,2.1111111111111094
2023-03-16T00:15:34.000Z,2.1111111111111094
2023-03-16T00:16:14.000Z,2.1111111111111094
2023-03-16T00:16:39.000Z,2.2222222222222223
2023-03-16T00:17:09.000Z,2.2222222222222223
2023-03-16T00:17:34.000Z,2.1111111111111094
2023-03-16T00:17:59.000Z,2.1111111111111094
2023-03-16T00:18:29.000Z,2.1111111111111094
2023-03-16T00:19:04.000Z,2.1111111111111094
2023-03-16T00:19:34.000Z,2.1111111111111094
2023-03-16T00:20:04.000Z,2.1111111111111094
2023-03-16T00:20:39.000Z,2.1111111111111094
2023-03-16T00:21:09.000Z,2.1111111111111094
2023-03-16T00:21:42.000Z,2.2222222222222223
2023-03-16T00:22:24.000Z,2.2222222222222223
2023-03-16T00:22:54.000Z,2.2222222222222223
2023-03-16T00:23:19.000Z,2.2222222222222223
2023-03-16T00:24:04.000Z,2.2777777777777786
2023-03-16T00:24:39.000Z,2.2777777777777786
2023-03-16T00:25:09.000Z,2.2777777777777786
2023-03-16T00:25:42.000Z,2.2777777777777786
2023-03-16T00:26:14.000Z,2.2777777777777786
2023-03-16T00:26:36.000Z,2.2777777777777786
2023-03-16T00:27:04.000Z,2.2777777777777786
2023-03-16T00:27:34.000Z,2.2777777777777786
2023-03-16T00:28:04.000Z,2.2777777777777786
2023-03-16T00:28:39.000Z,2.2777777777777786
2023-03-16T00:29:10.000Z,2.2777777777777786
2023-03-16T00:29:34.000Z,2.2777777777777786
2023-03-16T00:30:00.000Z,2.2777777777777786
2023-03-16T00:30:27.000Z,2.2777777777777786
2023-03-16T00:30:54.000Z,2.2777777777777786
2023-03-16T00:31:20.000Z,2.2777777777777786
2023-03-16T00:31:49.000Z,2.2777777777777786
2023-03-16T00:32:19.000Z,2.2222222222222223
2023-03-16T00:32:54.000Z,2.2222222222222223
2023-03-16T00:33:24.000Z,2.2222222222222223
2023-03-16T00:33:59.000Z,2.2222222222222223
2023-03-16T00:34:29.000Z,2.2222222222222223
2023-03-16T00:35:04.000Z,2.2222222222222223
2023-03-16T00:35:34.000Z,2.2222222222222223
2023-03-16T00:36:04.000Z,2.2222222222222223
2023-03-16T00:36:39.000Z,2.2222222222222223
2023-03-16T00:37:10.000Z,2.2222222222222223
2023-03-16T00:37:34.000Z,2.2222222222222223
2023-03-16T00:38:00.000Z,2.2222222222222223
2023-03-16T00:38:27.000Z,2.2222222222222223
2023-03-16T00:39:04.000Z,2.2222222222222223
2023-03-16T00:39:34.000Z,2.1111111111111094
2023-03-16T00:40:04.000Z,2.1111111111111094
2023-03-16T00:40:39.000Z,2.1111111111111094
2023-03-16T00:41:09.000Z,2.1111111111111094
2023-03-16T00:41:34.000Z,2.1111111111111094
2023-03-16T00:41:59.000Z,2.1111111111111094
2023-03-16T00:42:29.000Z,2.1111111111111094
2023-03-16T00:43:04.000Z,2.1111111111111094
2023-03-16T00:43:34.000Z,2.1111111111111094
2023-03-16T00:44:04.000Z,2.2222222222222223
2023-03-16T00:44:49.000Z,2.2222222222222223
2023-03-16T00:45:12.000Z,2.2222222222222223
2023-03-16T00:45:36.000Z,2.2222222222222223
2023-03-16T00:45:59.000Z,2.2222222222222223
2023-03-16T00:46:29.000Z,2.2222222222222223
2023-03-16T00:47:04.000Z,2.2222222222222223
2023-03-16T00:47:34.000Z,2.2222222222222223
2023-03-16T00:48:04.000Z,2.2222222222222223
2023-03-16T00:48:39.000Z,2.2222222222222223
2023-03-16T00:49:09.000Z,2.2222222222222223
2023-03-16T00:49:42.000Z,2.2222222222222223
2023-03-16T00:50:14.000Z,2.2222222222222223
2023-03-16T00:50:36.000Z,2.2222222222222223
2023-03-16T00:51:14.000Z,2.2222222222222223
2023-03-16T00:51:44.000Z,2.2222222222222223
2023-03-16T00:52:07.000Z,2.1111111111111094
2023-03-16T00:52:34.000Z,2.1111111111111094
2023-03-16T00:53:04.000Z,2.1111111111111094
2023-03-16T00:53:34.000Z,2.1111111111111094
2023-03-16T00:53:59.000Z,2.1111111111111094
2023-03-16T00:54:29.000Z,2.1111111111111094
2023-03-16T00:55:04.000Z,2.2222222222222223
2023-03-16T00:55:34.000Z,2.2222222222222223
2023-03-16T00:56:04.000Z,2.2222222222222223
2023-03-16T00:56:39.000Z,2.2222222222222223
2023-03-16T00:57:09.000Z,2.2222222222222223
2023-03-16T00:57:34.000Z,2.2222222222222223
2023-03-16T00:57:59.000Z,2.2222222222222223
2023-03-16T00:58:29.000Z,2.2222222222222223
2023-03-16T00:59:04.000Z,2.2222222222222223
2023-03-16T00:59:34.000Z,2.2222222222222223
2023-03-16T01:00:14.000Z,2.2222222222222223
2023-03-16T01:00:40.000Z,2.2222222222222223
2023-03-16T01:01:11.000Z,2.2222222222222223
2023-03-16T01:01:39.000Z,2.2222222222222223
2023-03-16T01:02:04.000Z,2.2222222222222223
2023-03-16T01:02:30.000Z,2.2222222222222223
2023-03-16T01:03:04.000Z,2.2222222222222223
2023-03-16T01:03:44.000Z,2.1111111111111094
2023-03-16T01:04:07.000Z,2.1111111111111094
2023-03-16T01:04:34.000Z,2.1111111111111094
2023-03-16T01:05:04.000Z,2.1111111111111094
2023-03-16T01:05:34.000Z,2.1111111111111094
2023-03-16T01:06:00.000Z,2.1111111111111094
2023-03-16T01:06:27.000Z,2.1111111111111094
2023-03-16T01:06:44.000Z,2.1111111111111094
2023-03-16T01:07:19.000Z,2.1111111111111094
2023-03-16T01:07:47.000Z,2.1111111111111094
2023-03-16T01:08:04.000Z,2.1111111111111094
2023-03-16T01:08:39.000Z,2.1111111111111094
2023-03-16T01:09:09.000Z,2.1111111111111094
2023-03-16T01:09:34.000Z,2.1111111111111094
2023-03-16T01:09:59.000Z,2.1111111111111094
2023-03-16T01:10:29.000Z,2.1111111111111094
2023-03-16T01:11:04.000Z,2.1111111111111094
2023-03-16T01:11:34.000Z,2.1111111111111094
2023-03-16T01:12:04.000Z,2.1111111111111094
2023-03-16T01:12:49.000Z,2.1111111111111094
2023-03-16T01:13:09.000Z,2.1111111111111094
2023-03-16T01:13:34.000Z,2.1111111111111094
2023-03-16T01:13:59.000Z,2.1111111111111094
2023-03-16T01:14:29.000Z,2.1111111111111094
2023-03-16T01:15:04.000Z,2.1111111111111094
2023-03-16T01:15:34.000Z,2.1111111111111094
2023-03-16T01:16:04.000Z,2.1111111111111094
2023-03-16T01:16:39.000Z,2.1111111111111094
2023-03-16T01:17:09.000Z,2.1111111111111094
2023-03-16T01:17:44.000Z,2.1111111111111094
2023-03-16T01:18:14.000Z,2.1111111111111094
2023-03-16T01:18:36.000Z,2.000000000000001
2023-03-16T01:19:04.000Z,2.000000000000001
2023-03-16T01:19:34.000Z,2.000000000000001
2023-03-16T01:20:04.000Z,2.000000000000001
2023-03-16T01:20:39.000Z,2.000000000000001
2023-03-16T01:21:09.000Z,2.000000000000001
2023-03-16T01:21:42.000Z,2.000000000000001
2023-03-16T01:22:14.000Z,2.000000000000001
2023-03-16T01:22:36.000Z,2.000000000000001
2023-03-16T01:23:04.000Z,2.000000000000001
2023-03-16T01:23:34.000Z,2.000000000000001
2023-03-16T01:24:04.000Z,2.000000000000001
2023-03-16T01:24:39.000Z,2.000000000000001
2023-03-16T01:25:10.000Z,2.1111111111111094
2023-03-16T01:25:34.000Z,2.1111111111111094
2023-03-16T01:25:59.000Z,2.1111111111111094
2023-03-16T01:26:29.000Z,2.1111111111111094
2023-03-16T01:27:04.000Z,2.1111111111111094
2023-03-16T01:27:34.000Z,2.1111111111111094
2023-03-16T01:28:04.000Z,2.1111111111111094
2023-03-16T01:28:39.000Z,2.1111111111111094
2023-03-16T01:29:09.000Z,2.1111111111111094
2023-03-16T01:29:42.000Z,2.1111111111111094
2023-03-16T01:30:14.000Z,2.1111111111111094
2023-03-16T01:30:36.000Z,2.1111111111111094
2023-03-16T01:31:04.000Z,2.1111111111111094
2023-03-16T01:31:44.000Z,2.1111111111111094
2023-03-16T01:32:07.000Z,2.1111111111111094
2023-03-16T01:32:49.000Z,2.1111111111111094
2023-03-16T01:33:12.000Z,2.1111111111111094
2023-03-16T01:33:36.000Z,2.1111111111111094
2023-03-16T01:33:59.000Z,2.2222222222222223
2023-03-16T01:34:29.000Z,2.2222222222222223
2023-03-16T01:35:04.000Z,2.2222222222222223
2023-03-16T01:35:34.000Z,2.2222222222222223
2023-03-16T01:36:04.000Z,2.2222222222222223
2023-03-16T01:36:39.000Z,2.2222222222222223
2023-03-16T01:37:09.000Z,2.2777777777777786
2023-03-16T01:37:42.000Z,2.2777777777777786
2023-03-16T01:38:14.000Z,2.2777777777777786
2023-03-16T01:38:45.000Z,2.2777777777777786
2023-03-16T01:39:15.000Z,2.2777777777777786
2023-03-16T01:39:34.000Z,2.2777777777777786
2023-03-16T01:40:04.000Z,2.2777777777777786
2023-03-16T01:40:39.000Z,2.2777777777777786
2023-03-16T01:41:09.000Z,2.3888888888888875
2023-03-16T01:41:42.000Z,2.3888888888888875
2023-03-16T01:42:14.000Z,2.3888888888888875
2023-03-16T01:42:36.000Z,2.3888888888888875
2023-03-16T01:43:04.000Z,2.3888888888888875
2023-03-16T01:43:35.000Z,2.3888888888888875
2023-03-16T01:44:04.000Z,2.3888888888888875
2023-03-16T01:44:39.000Z,2.3888888888888875
2023-03-16T01:45:09.000Z,2.3888888888888875
2023-03-16T01:45:34.000Z,2.3888888888888875
2023-03-16T01:45:59.000Z,2.3888888888888875
2023-03-16T01:46:29.000Z,2.3888888888888875
2023-03-16T01:47:04.000Z,2.2777777777777786
2023-03-16T01:47:34.000Z,2.2777777777777786
2023-03-16T01:48:04.000Z,2.2777777777777786
2023-03-16T01:48:39.000Z,2.2777777777777786
2023-03-16T01:49:09.000Z,2.2777777777777786
2023-03-16T01:49:34.000Z,2.2777777777777786
2023-03-16T01:49:59.000Z,2.2777777777777786
2023-03-16T01:50:29.000Z,2.3888888888888875
2023-03-16T01:51:04.000Z,2.3888888888888875
2023-03-16T01:51:44.000Z,2.3888888888888875
2023-03-16T01:52:07.000Z,2.3888888888888875
2023-03-16T01:52:34.000Z,2.3888888888888875
2023-03-16T01:53:04.000Z,2.3888888888888875
2023-03-16T01:53:34.000Z,2.3888888888888875
2023-03-16T01:53:59.000Z,2.5
2023-03-16T01:54:29.000Z,2.5
2023-03-16T01:55:04.000Z,2.5
2023-03-16T01:55:34.000Z,2.5
2023-03-16T01:56:04.000Z,2.5
2023-03-16T01:56:39.000Z,2.6111111111111125
2023-03-16T01:57:09.000Z,2.6111111111111125
2023-03-16T01:57:34.000Z,2.6111111111111125
2023-03-16T01:57:59.000Z,2.6111111111111125
2023-03-16T01:58:29.000Z,2.6111111111111125
2023-03-16T01:59:04.000Z,2.6111111111111125
2023-03-16T01:59:34.000Z,2.6111111111111125
2023-03-16T02:00:04.000Z,2.6111111111111125
2023-03-16T02:00:39.000Z,2.6111111111111125
2023-03-16T02:01:09.000Z,2.5
2023-03-16T02:01:42.000Z,2.5
2023-03-16T02:02:14.000Z,2.5
2023-03-16T02:02:36.000Z,2.5
2023-03-16T02:03:04.000Z,2.6111111111111125
2023-03-16T02:03:34.000Z,2.6111111111111125
2023-03-16T02:04:04.000Z,2.6111111111111125
2023-03-16T02:04:39.000Z,2.6111111111111125
2023-03-16T02:05:09.000Z,2.6111111111111125
2023-03-16T02:05:34.000Z,2.6111111111111125
2023-03-16T02:05:59.000Z,2.6111111111111125
2023-03-16T02:06:29.000Z,2.6111111111111125
2023-03-16T02:07:04.000Z,2.6111111111111125
2023-03-16T02:07:34.000Z,2.6111111111111125
2023-03-16T02:08:04.000Z,2.6111111111111125
2023-03-16T02:08:39.000Z,2.6111111111111125
2023-03-16T02:09:09.000Z,2.6111111111111125
2023-03-16T02:09:34.000Z,2.6111111111111125
2023-03-16T02:09:59.000Z,2.6111111111111125
2023-03-16T02:10:29.000Z,2.6111111111111125
2023-03-16T02:11:04.000Z,2.6111111111111125
2023-03-16T02:11:44.000Z,2.6111111111111125
2023-03-16T02:12:07.000Z,2.6111111111111125
2023-03-16T02:12:39.000Z,2.6111111111111125
2023-03-16T02:13:09.000Z,2.6111111111111125
2023-03-16T02:13:42.000Z,2.6111111111111125
2023-03-16T02:14:14.000Z,2.6111111111111125
2023-03-16T02:14:36.000Z,2.6111111111111125
2023-03-16T02:15:04.000Z,2.6111111111111125
2023-03-16T02:15:34.000Z,2.6111111111111125
2023-03-16T02:16:04.000Z,2.6111111111111125
2023-03-16T02:16:39.000Z,2.6111111111111125
2023-03-16T02:17:09.000Z,2.6111111111111125
2023-03-16T02:17:35.000Z,2.7222222222222214
2023-03-16T02:17:59.000Z,2.7222222222222214
2023-03-16T02:18:29.000Z,2.7222222222222214
2023-03-16T02:19:04.000Z,2.7222222222222214
2023-03-16T02:19:34.000Z,2.7222222222222214
2023-03-16T02:20:04.000Z,2.7222222222222214
2023-03-16T02:20:39.000Z,2.7222222222222214
2023-03-16T02:21:09.000Z,2.7222222222222214
2023-03-16T02:21:34.000Z,2.7222222222222214
2023-03-16T02:21:59.000Z,2.7222222222222214
2023-03-16T02:22:29.000Z,2.7222222222222214
2023-03-16T02:23:04.000Z,2.7222222222222214
2023-03-16T02:23:34.000Z,2.7222222222222214
2023-03-16T02:24:05.000Z,2.7222222222222214
2023-03-16T02:24:39.000Z,2.7222222222222214
2023-03-16T02:25:09.000Z,2.6111111111111125
2023-03-16T02:25:42.000Z,2.6111111111111125
2023-03-16T02:26:14.000Z,2.5
2023-03-16T02:26:36.000Z,2.5
2023-03-16T02:27:04.000Z,2.5
2023-03-16T02:27:34.000Z,2.5
2023-03-16T02:28:04.000Z,2.5
2023-03-16T02:28:39.000Z,2.5
2023-03-16T02:29:09.000Z,2.5
2023-03-16T02:29:42.000Z,2.5
2023-03-16T02:30:11.000Z,2.5
2023-03-16T02:30:39.000Z,2.5
2023-03-16T02:31:04.000Z,2.5
2023-03-16T02:31:34.000Z,2.6111111111111125
2023-03-16T02:32:04.000Z,2.6111111111111125
2023-03-16T02:32:39.000Z,2.6111111111111125
2023-03-16T02:33:09.000Z,2.6111111111111125
2023-03-16T02:33:42.000Z,2.6111111111111125
2023-03-16T02:34:14.000Z,2.6111111111111125
2023-03-16T02:34:36.000Z,2.5
2023-03-16T02:35:04.000Z,2.5
2023-03-16T02:35:34.000Z,2.5
2023-03-16T02:36:04.000Z,2.3888888888888875
2023-03-16T02:36:39.000Z,2.3888888888888875
2023-03-16T02:37:19.000Z,2.3888888888888875
2023-03-16T02:37:45.000Z,2.3888888888888875
2023-03-16T02:38:14.000Z,2.3888888888888875
2023-03-16T02:38:36.000Z,2.3888888888888875
2023-03-16T02:39:04.000Z,2.3888888888888875
2023-03-16T02:39:34.000Z,2.5
2023-03-16T02:40:04.000Z,2.5
2023-03-16T02:40:39.000Z,2.5
2023-03-16T02:41:09.000Z,2.5
2023-03-16T02:41:34.000Z,2.3888888888888875
2023-03-16T02:41:59.000Z,2.3888888888888875
2023-03-16T02:42:29.000Z,2.3888888888888875
2023-03-16T02:43:05.000Z,2.3888888888888875
2023-03-16T02:43:34.000Z,2.3888888888888875
2023-03-16T02:44:14.000Z,2.3888888888888875
2023-03-16T02:44:40.000Z,2.3888888888888875
2023-03-16T02:45:11.000Z,2.3888888888888875
2023-03-16T02:45:42.000Z,2.3888888888888875
2023-03-16T02:46:14.000Z,2.2777777777777786
2023-03-16T02:46:36.000Z,2.2777777777777786
2023-03-16T02:47:04.000Z,2.2777777777777786
2023-03-16T02:47:34.000Z,2.2777777777777786
2023-03-16T02:48:04.000Z,2.2222222222222223
2023-03-16T02:48:39.000Z,2.2222222222222223
2023-03-16T02:49:09.000Z,2.2222222222222223
2023-03-16T02:49:34.000Z,2.2222222222222223
2023-03-16T02:49:59.000Z,2.1111111111111094
2023-03-16T02:50:29.000Z,2.1111111111111094
2023-03-16T02:51:14.000Z,2.1111111111111094
2023-03-16T02:51:44.000Z,2.1111111111111094
2023-03-16T02:52:07.000Z,2.1111111111111094
2023-03-16T02:52:34.000Z,2.000000000000001
2023-03-16T02:53:04.000Z,2.000000000000001
2023-03-16T02:53:34.000Z,2.000000000000001
2023-03-16T02:54:00.000Z,2.000000000000001
2023-03-16T02:54:27.000Z,2.000000000000001
2023-03-16T02:54:54.000Z,2.000000000000001
2023-03-16T02:55:20.000Z,2.000000000000001
2023-03-16T02:55:44.000Z,2.000000000000001
2023-03-16T02:56:04.000Z,2.000000000000001
2023-03-16T02:56:39.000Z,2.000000000000001
2023-03-16T02:57:09.000Z,2.000000000000001
2023-03-16T02:57:34.000Z,2.000000000000001
2023-03-16T02:57:59.000Z,2.000000000000001
2023-03-16T02:58:29.000Z,2.000000000000001
2023-03-16T02:59:04.000Z,2.000000000000001
2023-03-16T02:59:34.000Z,2.000000000000001
2023-03-16T03:00:04.000Z,2.000000000000001
2023-03-16T03:00:39.000Z,2.000000000000001
2023-03-16T03:01:09.000Z,2.000000000000001
2023-03-16T03:01:44.000Z,1.8888888888888882
2023-03-16T03:02:14.000Z,1.8888888888888882
2023-03-16T03:02:36.000Z,1.8888888888888882
2023-03-16T03:03:04.000Z,1.8888888888888882
2023-03-16T03:03:34.000Z,1.8888888888888882
2023-03-16T03:04:04.000Z,1.8888888888888882
2023-03-16T03:04:39.000Z,1.8888888888888882
2023-03-16T03:05:09.000Z,1.8888888888888882
2023-03-16T03:05:34.000Z,1.8888888888888882
2023-03-16T03:05:59.000Z,1.8888888888888882
2023-03-16T03:06:29.000Z,1.8888888888888882
2023-03-16T03:07:04.000Z,1.8888888888888882
2023-03-16T03:07:35.000Z,1.8888888888888882
2023-03-16T03:08:09.000Z,1.8888888888888882
2023-03-16T03:08:49.000Z,1.8888888888888882
2023-03-16T03:09:12.000Z,2.000000000000001
2023-03-16T03:09:39.000Z,2.000000000000001
2023-03-16T03:10:04.000Z,2.000000000000001
2023-03-16T03:10:30.000Z,2.000000000000001
2023-03-16T03:11:04.000Z,2.000000000000001
2023-03-16T03:11:44.000Z,2.000000000000001
2023-03-16T03:12:07.000Z,2.000000000000001
2023-03-16T03:12:34.000Z,2.000000000000001
2023-03-16T03:12:51.000Z,2.000000000000001
2023-03-16T03:13:09.000Z,2.000000000000001
2023-03-16T03:13:34.000Z,2.000000000000001
2023-03-16T03:14:00.000Z,2.000000000000001
2023-03-16T03:14:27.000Z,2.000000000000001
2023-03-16T03:14:44.000Z,2.000000000000001
2023-03-16T03:15:19.000Z,2.000000000000001
2023-03-16T03:15:49.000Z,2.000000000000001
2023-03-16T03:16:19.000Z,2.000000000000001
2023-03-16T03:16:53.000Z,2.000000000000001
2023-03-16T03:17:24.000Z,2.000000000000001
2023-03-16T03:17:59.000Z,2.000000000000001
2023-03-16T03:18:29.000Z,1.8888888888888882
2023-03-16T03:19:04.000Z,1.8888888888888882
2023-03-16T03:19:34.000Z,1.8888888888888882
2023-03-16T03:20:04.000Z,1.8888888888888882
2023-03-16T03:20:49.000Z,1.8888888888888882
2023-03-16T03:21:12.000Z,1.8888888888888882
2023-03-16T03:21:39.000Z,1.8888888888888882
2023-03-16T03:22:04.000Z,1.8888888888888882
2023-03-16T03:22:30.000Z,1.8888888888888882
2023-03-16T03:23:04.000Z,1.8888888888888882
2023-03-16T03:23:44.000Z,2.000000000000001
2023-03-16T03:24:04.000Z,2.1111111111111094
2023-03-16T03:24:39.000Z,2.1111111111111094
2023-03-16T03:25:09.000Z,2.1111111111111094
2023-03-16T03:25:42.000Z,2.1111111111111094
2023-03-16T03:26:14.000Z,2.2222222222222223
2023-03-16T03:26:36.000Z,2.2222222222222223
2023-03-16T03:27:04.000Z,2.2777777777777786
2023-03-16T03:27:34.000Z,2.2777777777777786
2023-03-16T03:28:04.000Z,2.3888888888888875
2023-03-16T03:28:39.000Z,2.3888888888888875
2023-03-16T03:29:09.000Z,2.3888888888888875
2023-03-16T03:29:44.000Z,2.3888888888888875
2023-03-16T03:30:14.000Z,2.3888888888888875
2023-03-16T03:30:36.000Z,2.3888888888888875
2023-03-16T03:31:04.000Z,2.5
2023-03-16T03:31:34.000Z,2.5
2023-03-16T03:32:04.000Z,2.5
2023-03-16T03:32:39.000Z,2.5
2023-03-16T03:33:09.000Z,2.5
2023-03-16T03:33:34.000Z,2.5
2023-03-16T03:33:59.000Z,2.5
2023-03-16T03:34:29.000Z,2.5
2023-03-16T03:35:04.000Z,2.5
2023-03-16T03:35:44.000Z,2.5
2023-03-16T03:36:07.000Z,2.5
2023-03-16T03:36:34.000Z,2.5
2023-03-16T03:36:54.000Z,2.3888888888888875
2023-03-16T03:37:24.000Z,2.3888888888888875
2023-03-16T03:37:59.000Z,2.3888888888888875
2023-03-16T03:38:29.000Z,2.3888888888888875
2023-03-16T03:39:04.000Z,2.3888888888888875
2023-03-16T03:39:34.000Z,2.5
2023-03-16T03:40:04.000Z,2.5
2023-03-16T03:40:39.000Z,2.5
2023-03-16T03:41:09.000Z,2.5
2023-03-16T03:41:34.000Z,2.5
2023-03-16T03:41:59.000Z,2.6111111111111125
2023-03-16T03:42:29.000Z,2.6111111111111125
2023-03-16T03:43:14.000Z,2.6111111111111125
2023-03-16T03:43:44.000Z,2.6111111111111125
2023-03-16T03:44:07.000Z,2.6111111111111125
2023-03-16T03:44:34.000Z,2.6111111111111125
2023-03-16T03:44:51.000Z,2.6111111111111125
2023-03-16T03:45:09.000Z,2.6111111111111125
2023-03-16T03:45:34.000Z,2.6111111111111125
2023-03-16T03:45:59.000Z,2.5
2023-03-16T03:46:29.000Z,2.5
2023-03-16T03:47:05.000Z,2.5
2023-03-16T03:47:34.000Z,2.5
2023-03-16T03:48:04.000Z,2.5
2023-03-16T03:48:39.000Z,2.5
2023-03-16T03:49:09.000Z,2.5
2023-03-16T03:49:42.000Z,2.5
2023-03-16T03:50:14.000Z,2.5
2023-03-16T03:50:36.000Z,2.5
2023-03-16T03:51:04.000Z,2.5
2023-03-16T03:51:34.000Z,2.5
2023-03-16T03:52:04.000Z,2.5
2023-03-16T03:52:39.000Z,2.5
2023-03-16T03:53:10.000Z,2.5
2023-03-16T03:53:34.000Z,2.5
2023-03-16T03:53:59.000Z,2.6111111111111125
2023-03-16T03:54:29.000Z,2.6111111111111125
2023-03-16T03:55:04.000Z,2.6111111111111125
2023-03-16T03:55:31.000Z,2.6111111111111125
2023-03-16T03:55:47.000Z,2.7222222222222214
2023-03-16T03:56:04.000Z,2.7222222222222214
2023-03-16T03:56:39.000Z,2.7222222222222214
2023-03-16T03:57:09.000Z,2.7222222222222214
2023-03-16T03:57:34.000Z,2.7222222222222214
2023-03-16T03:57:55.000Z,2.7222222222222214
2023-03-16T03:58:24.000Z,2.7222222222222214
2023-03-16T03:58:54.000Z,2.7222222222222214
2023-03-16T03:59:20.000Z,2.7777777777777777
2023-03-16T03:59:44.000Z,2.7777777777777777
2023-03-16T04:00:07.000Z,2.8888888888888906
2023-03-16T04:00:34.000Z,2.8888888888888906
2023-03-16T04:00:51.000Z,2.8888888888888906
2023-03-16T04:01:09.000Z,2.8888888888888906
2023-03-16T04:01:34.000Z,2.8888888888888906
2023-03-16T04:02:00.000Z,2.8888888888888906
2023-03-16T04:02:27.000Z,2.8888888888888906
2023-03-16T04:03:04.000Z,2.8888888888888906
2023-03-16T04:03:44.000Z,2.8888888888888906
2023-03-16T04:04:07.000Z,2.8888888888888906
2023-03-16T04:04:34.000Z,2.8888888888888906
2023-03-16T04:05:04.000Z,2.8888888888888906
2023-03-16T04:05:24.000Z,2.8888888888888906
2023-03-16T04:05:59.000Z,2.8888888888888906
2023-03-16T04:06:29.000Z,2.8888888888888906
2023-03-16T04:07:04.000Z,2.8888888888888906
2023-03-16T04:07:34.000Z,2.8888888888888906
2023-03-16T04:08:04.000Z,2.8888888888888906
2023-03-16T04:08:39.000Z,2.8888888888888906
2023-03-16T04:09:09.000Z,2.8888888888888906
2023-03-16T04:09:42.000Z,2.8888888888888906
2023-03-16T04:10:14.000Z,2.8888888888888906
2023-03-16T04:10:36.000Z,2.8888888888888906
2023-03-16T04:11:04.000Z,2.8888888888888906
2023-03-16T04:11:44.000Z,2.8888888888888906
2023-03-16T04:12:07.000Z,2.8888888888888906
2023-03-16T04:12:34.000Z,2.999999999999999
2023-03-16T04:13:09.000Z,2.999999999999999
2023-03-16T04:13:34.000Z,2.999999999999999
2023-03-16T04:14:00.000Z,2.999999999999999
2023-03-16T04:14:27.000Z,3.111111111111112
2023-03-16T04:15:04.000Z,3.111111111111112
2023-03-16T04:15:44.000Z,3.111111111111112
2023-03-16T04:16:07.000Z,3.111111111111112
2023-03-16T04:16:34.000Z,3.111111111111112
2023-03-16T04:17:04.000Z,3.111111111111112
2023-03-16T04:17:34.000Z,3.111111111111112
2023-03-16T04:18:00.000Z,3.111111111111112
2023-03-16T04:18:27.000Z,3.111111111111112
2023-03-16T04:18:54.000Z,3.111111111111112
2023-03-16T04:19:21.000Z,3.111111111111112
2023-03-16T04:19:44.000Z,3.111111111111112
2023-03-16T04:20:07.000Z,3.111111111111112
2023-03-16T04:20:39.000Z,3.111111111111112
2023-03-16T04:21:09.000Z,3.111111111111112
2023-03-16T04:21:34.000Z,3.111111111111112
2023-03-16T04:21:59.000Z,3.111111111111112
2023-03-16T04:22:29.000Z,3.111111111111112
2023-03-16T04:23:04.000Z,3.111111111111112
2023-03-16T04:23:34.000Z,3.111111111111112
2023-03-16T04:24:04.000Z,3.111111111111112
2023-03-16T04:24:39.000Z,3.111111111111112
2023-03-16T04:25:09.000Z,3.111111111111112
2023-03-16T04:25:42.000Z,3.111111111111112
2023-03-16T04:26:11.000Z,3.2222222222222205
2023-03-16T04:26:39.000Z,3.2222222222222205
2023-03-16T04:27:04.000Z,3.277777777777777
2023-03-16T04:27:31.000Z,3.277777777777777
2023-03-16T04:27:55.000Z,3.277777777777777
2023-03-16T04:28:20.000Z,3.277777777777777
2023-03-16T04:28:49.000Z,3.277777777777777
2023-03-16T04:29:12.000Z,3.277777777777777
2023-03-16T04:29:36.000Z,3.277777777777777
2023-03-16T04:29:59.000Z,3.277777777777777
2023-03-16T04:30:29.000Z,3.277777777777777
2023-03-16T04:31:04.000Z,3.277777777777777
2023-03-16T04:31:34.000Z,3.277777777777777
2023-03-16T04:32:04.000Z,3.277777777777777
2023-03-16T04:32:39.000Z,3.277777777777777
2023-03-16T04:33:09.000Z,3.277777777777777
2023-03-16T04:33:42.000Z,3.277777777777777
2023-03-16T04:34:14.000Z,3.277777777777777
2023-03-16T04:34:36.000Z,3.277777777777777
2023-03-16T04:35:14.000Z,3.277777777777777
2023-03-16T04:35:35.000Z,3.3888888888888897
2023-03-16T04:36:04.000Z,3.3888888888888897
2023-03-16T04:36:39.000Z,3.3888888888888897
2023-03-16T04:37:09.000Z,3.277777777777777
2023-03-16T04:37:34.000Z,3.277777777777777
2023-03-16T04:37:59.000Z,3.277777777777777
2023-03-16T04:38:29.000Z,3.277777777777777
2023-03-16T04:39:05.000Z,3.277777777777777
2023-03-16T04:39:34.000Z,3.277777777777777